sensor_id;sensor_type;location;lat;lon;timestamp;pressure;altitude;pressure_sealevel;temperature
68745;BMP180;66104;45.456;11.064;2023-02-01T00:01:30;101178.60;;;4.30
68745;BMP180;66104;45.456;11.064;2023-02-01T00:04:07;101175.20;;;4.30
68745;BMP180;66104;45.456;11.064;2023-02-01T00:06:45;101171.00;;;4.30
68745;BMP180;66104;45.456;11.064;2023-02-01T00:09:21;101171.80;;;4.30
68745;BMP180;66104;45.456;11.064;2023-02-01T00:11:58;101163.80;;;4.38
68745;BMP180;66104;45.456;11.064;2023-02-01T00:14:37;101165.80;;;4.40
68745;BMP180;66104;45.456;11.064;2023-02-01T00:17:14;101166.60;;;4.50
68745;BMP180;66104;45.456;11.064;2023-02-01T00:19:50;101161.00;;;4.50
68745;BMP180;66104;45.456;11.064;2023-02-01T00:22:28;101159.80;;;4.50
68745;BMP180;66104;45.456;11.064;2023-02-01T00:25:06;101160.80;;;4.56
68745;BMP180;66104;45.456;11.064;2023-02-01T00:27:46;101165.60;;;4.60
68745;BMP180;66104;45.456;11.064;2023-02-01T00:30:24;101169.40;;;4.60
68745;BMP180;66104;45.456;11.064;2023-02-01T00:33:01;101166.00;;;4.58
68745;BMP180;66104;45.456;11.064;2023-02-01T00:35:39;101168.20;;;4.54
68745;BMP180;66104;45.456;11.064;2023-02-01T00:38:16;101171.60;;;4.50
68745;BMP180;66104;45.456;11.064;2023-02-01T00:40:53;101166.00;;;4.50
68745;BMP180;66104;45.456;11.064;2023-02-01T00:43:30;101170.40;;;4.50
68745;BMP180;66104;45.456;11.064;2023-02-01T00:46:05;101169.40;;;4.50
68745;BMP180;66104;45.456;11.064;2023-02-01T00:48:42;101164.20;;;4.50
68745;BMP180;66104;45.456;11.064;2023-02-01T00:51:22;101165.20;;;4.50
68745;BMP180;66104;45.456;11.064;2023-02-01T00:53:58;101163.60;;;4.40
68745;BMP180;66104;45.456;11.064;2023-02-01T00:56:35;101161.00;;;4.40
68745;BMP180;66104;45.456;11.064;2023-02-01T00:59:15;101164.20;;;4.40
68745;BMP180;66104;45.456;11.064;2023-02-01T01:01:51;101160.80;;;4.30
68745;BMP180;66104;45.456;11.064;2023-02-01T01:04:28;101167.00;;;4.30
68745;BMP180;66104;45.456;11.064;2023-02-01T01:07:04;101165.80;;;4.28
68745;BMP180;66104;45.456;11.064;2023-02-01T01:09:40;101167.40;;;4.20
68745;BMP180;66104;45.456;11.064;2023-02-01T01:12:16;101159.40;;;4.10
68745;BMP180;66104;45.456;11.064;2023-02-01T01:14:53;101158.40;;;4.10
68745;BMP180;66104;45.456;11.064;2023-02-01T01:17:29;101156.60;;;4.00
68745;BMP180;66104;45.456;11.064;2023-02-01T01:20:11;101154.20;;;4.00
68745;BMP180;66104;45.456;11.064;2023-02-01T01:22:50;101156.60;;;4.00
68745;BMP180;66104;45.456;11.064;2023-02-01T01:25:26;101157.20;;;4.00
68745;BMP180;66104;45.456;11.064;2023-02-01T01:28:03;101153.00;;;4.00
68745;BMP180;66104;45.456;11.064;2023-02-01T01:30:40;101153.20;;;4.00
68745;BMP180;66104;45.456;11.064;2023-02-01T01:33:16;101155.00;;;4.00
68745;BMP180;66104;45.456;11.064;2023-02-01T01:35:53;101153.40;;;4.00
68745;BMP180;66104;45.456;11.064;2023-02-01T01:38:30;101145.00;;;4.00
68745;BMP180;66104;45.456;11.064;2023-02-01T01:41:07;101148.80;;;4.00
68745;BMP180;66104;45.456;11.064;2023-02-01T01:44:06;101146.60;;;4.00
68745;BMP180;66104;45.456;11.064;2023-02-01T01:47:02;101143.60;;;4.10
68745;BMP180;66104;45.456;11.064;2023-02-01T01:49:39;101140.00;;;4.14
68745;BMP180;66104;45.456;11.064;2023-02-01T01:52:17;101142.00;;;4.20
68745;BMP180;66104;45.456;11.064;2023-02-01T01:54:55;101138.20;;;4.30
68745;BMP180;66104;45.456;11.064;2023-02-01T01:57:40;101130.80;;;4.30
68745;BMP180;66104;45.456;11.064;2023-02-01T02:00:24;101132.40;;;4.34
68745;BMP180;66104;45.456;11.064;2023-02-01T02:03:07;101129.40;;;4.30
68745;BMP180;66104;45.456;11.064;2023-02-01T02:05:46;101123.60;;;4.30
68745;BMP180;66104;45.456;11.064;2023-02-01T02:08:26;101126.00;;;4.30
68745;BMP180;66104;45.456;11.064;2023-02-01T02:11:03;101123.20;;;4.30
68745;BMP180;66104;45.456;11.064;2023-02-01T02:13:44;101124.40;;;4.20
68745;BMP180;66104;45.456;11.064;2023-02-01T02:16:50;101124.80;;;4.20
68745;BMP180;66104;45.456;11.064;2023-02-01T02:20:17;101122.80;;;4.16
68745;BMP180;66104;45.456;11.064;2023-02-01T02:26:58;101121.60;;;4.10
68745;BMP180;66104;45.456;11.064;2023-02-01T02:30:22;101118.00;;;4.00
68745;BMP180;66104;45.456;11.064;2023-02-01T02:33:42;101111.80;;;4.00
68745;BMP180;66104;45.456;11.064;2023-02-01T02:36:34;101110.20;;;4.00
68745;BMP180;66104;45.456;11.064;2023-02-01T02:39:25;101109.00;;;3.94
68745;BMP180;66104;45.456;11.064;2023-02-01T02:42:12;101112.40;;;3.90
68745;BMP180;66104;45.456;11.064;2023-02-01T02:45:12;101111.60;;;3.90
68745;BMP180;66104;45.456;11.064;2023-02-01T02:48:19;101115.80;;;3.90
68745;BMP180;66104;45.456;11.064;2023-02-01T02:51:07;101114.80;;;3.90
68745;BMP180;66104;45.456;11.064;2023-02-01T02:54:08;101113.20;;;3.90
68745;BMP180;66104;45.456;11.064;2023-02-01T02:57:05;101111.60;;;3.90
68745;BMP180;66104;45.456;11.064;2023-02-01T03:00:04;101110.60;;;3.90
68745;BMP180;66104;45.456;11.064;2023-02-01T03:02:59;101115.20;;;4.00
68745;BMP180;66104;45.456;11.064;2023-02-01T03:05:54;101114.00;;;4.06
68745;BMP180;66104;45.456;11.064;2023-02-01T03:08:33;101116.40;;;4.00
68745;BMP180;66104;45.456;11.064;2023-02-01T03:11:12;101116.60;;;4.10
68745;BMP180;66104;45.456;11.064;2023-02-01T03:13:52;101115.40;;;4.10
68745;BMP180;66104;45.456;11.064;2023-02-01T03:16:34;101121.00;;;4.10
68745;BMP180;66104;45.456;11.064;2023-02-01T03:19:17;101129.20;;;4.10
68745;BMP180;66104;45.456;11.064;2023-02-01T03:22:00;101119.80;;;4.00
68745;BMP180;66104;45.456;11.064;2023-02-01T03:24:44;101120.60;;;4.00
68745;BMP180;66104;45.456;11.064;2023-02-01T03:27:24;101120.80;;;3.90
68745;BMP180;66104;45.456;11.064;2023-02-01T03:30:09;101125.80;;;3.70
68745;BMP180;66104;45.456;11.064;2023-02-01T03:32:54;101131.00;;;3.60
68745;BMP180;66104;45.456;11.064;2023-02-01T03:35:47;101126.00;;;3.60
68745;BMP180;66104;45.456;11.064;2023-02-01T03:38:30;101130.20;;;3.50
68745;BMP180;66104;45.456;11.064;2023-02-01T03:41:18;101131.40;;;3.50
68745;BMP180;66104;45.456;11.064;2023-02-01T03:44:04;101128.20;;;3.50
68745;BMP180;66104;45.456;11.064;2023-02-01T03:46:46;101130.60;;;3.42
68745;BMP180;66104;45.456;11.064;2023-02-01T03:49:31;101137.80;;;3.36
68745;BMP180;66104;45.456;11.064;2023-02-01T03:52:13;101133.60;;;3.30
68745;BMP180;66104;45.456;11.064;2023-02-01T03:54:52;101134.00;;;3.30
68745;BMP180;66104;45.456;11.064;2023-02-01T03:57:37;101129.60;;;3.30
68745;BMP180;66104;45.456;11.064;2023-02-01T04:00:24;101132.40;;;3.30
68745;BMP180;66104;45.456;11.064;2023-02-01T04:03:01;101135.80;;;3.40
68745;BMP180;66104;45.456;11.064;2023-02-01T04:05:38;101135.40;;;3.48
68745;BMP180;66104;45.456;11.064;2023-02-01T04:08:16;101140.40;;;3.50
68745;BMP180;66104;45.456;11.064;2023-02-01T04:10:52;101144.20;;;3.50
68745;BMP180;66104;45.456;11.064;2023-02-01T04:13:28;101144.20;;;3.50
68745;BMP180;66104;45.456;11.064;2023-02-01T04:16:05;101148.80;;;3.48
68745;BMP180;66104;45.456;11.064;2023-02-01T04:18:42;101148.20;;;3.42
68745;BMP180;66104;45.456;11.064;2023-02-01T04:21:19;101150.20;;;3.40
68745;BMP180;66104;45.456;11.064;2023-02-01T04:23:56;101149.20;;;3.40
68745;BMP180;66104;45.456;11.064;2023-02-01T04:26:33;101147.80;;;3.40
68745;BMP180;66104;45.456;11.064;2023-02-01T04:29:10;101150.40;;;3.30
68745;BMP180;66104;45.456;11.064;2023-02-01T04:31:47;101142.40;;;3.30
68745;BMP180;66104;45.456;11.064;2023-02-01T04:34:25;101150.00;;;3.30
68745;BMP180;66104;45.456;11.064;2023-02-01T04:37:02;101148.40;;;3.24
68745;BMP180;66104;45.456;11.064;2023-02-01T04:39:38;101150.20;;;3.22
68745;BMP180;66104;45.456;11.064;2023-02-01T04:42:15;101150.40;;;3.20
68745;BMP180;66104;45.456;11.064;2023-02-01T04:44:52;101155.80;;;3.20
68745;BMP180;66104;45.456;11.064;2023-02-01T04:47:29;101159.20;;;3.20
68745;BMP180;66104;45.456;11.064;2023-02-01T04:50:10;101158.80;;;3.20
68745;BMP180;66104;45.456;11.064;2023-02-01T04:52:47;101157.40;;;3.30
68745;BMP180;66104;45.456;11.064;2023-02-01T04:55:24;101154.60;;;3.30
68745;BMP180;66104;45.456;11.064;2023-02-01T04:58:01;101154.80;;;3.30
68745;BMP180;66104;45.456;11.064;2023-02-01T05:00:38;101157.00;;;3.40
68745;BMP180;66104;45.456;11.064;2023-02-01T05:03:15;101157.80;;;3.38
68745;BMP180;66104;45.456;11.064;2023-02-01T05:05:53;101157.00;;;3.30
68745;BMP180;66104;45.456;11.064;2023-02-01T05:08:31;101151.40;;;3.30
68745;BMP180;66104;45.456;11.064;2023-02-01T05:11:11;101153.60;;;3.30
68745;BMP180;66104;45.456;11.064;2023-02-01T05:14:00;101148.60;;;3.26
68745;BMP180;66104;45.456;11.064;2023-02-01T05:16:37;101147.40;;;3.26
68745;BMP180;66104;45.456;11.064;2023-02-01T05:19:14;101153.80;;;3.20
68745;BMP180;66104;45.456;11.064;2023-02-01T05:21:51;101151.00;;;3.20
68745;BMP180;66104;45.456;11.064;2023-02-01T05:24:28;101148.00;;;3.20
68745;BMP180;66104;45.456;11.064;2023-02-01T05:27:04;101149.40;;;3.20
68745;BMP180;66104;45.456;11.064;2023-02-01T05:29:41;101146.20;;;3.20
68745;BMP180;66104;45.456;11.064;2023-02-01T05:32:18;101143.80;;;3.20
68745;BMP180;66104;45.456;11.064;2023-02-01T05:34:55;101147.00;;;3.24
68745;BMP180;66104;45.456;11.064;2023-02-01T05:37:32;101146.20;;;3.30
68745;BMP180;66104;45.456;11.064;2023-02-01T05:40:13;101146.80;;;3.38
68745;BMP180;66104;45.456;11.064;2023-02-01T05:42:51;101149.80;;;3.30
68745;BMP180;66104;45.456;11.064;2023-02-01T05:45:28;101150.60;;;3.30
68745;BMP180;66104;45.456;11.064;2023-02-01T05:48:07;101152.40;;;3.18
68745;BMP180;66104;45.456;11.064;2023-02-01T05:50:45;101158.20;;;3.10
68745;BMP180;66104;45.456;11.064;2023-02-01T05:53:22;101155.40;;;3.00
68745;BMP180;66104;45.456;11.064;2023-02-01T05:55:59;101160.60;;;3.00
68745;BMP180;66104;45.456;11.064;2023-02-01T05:58:36;101163.40;;;3.00
68745;BMP180;66104;45.456;11.064;2023-02-01T06:01:12;101157.60;;;2.90
68745;BMP180;66104;45.456;11.064;2023-02-01T06:03:50;101157.20;;;2.90
68745;BMP180;66104;45.456;11.064;2023-02-01T06:06:27;101161.00;;;2.90
68745;BMP180;66104;45.456;11.064;2023-02-01T06:09:05;101159.40;;;2.90
68745;BMP180;66104;45.456;11.064;2023-02-01T06:11:43;101163.00;;;2.90
68745;BMP180;66104;45.456;11.064;2023-02-01T06:14:20;101163.20;;;2.90
68745;BMP180;66104;45.456;11.064;2023-02-01T06:16:58;101163.40;;;2.90
68745;BMP180;66104;45.456;11.064;2023-02-01T06:19:34;101155.00;;;2.90
68745;BMP180;66104;45.456;11.064;2023-02-01T06:22:11;101157.80;;;2.90
68745;BMP180;66104;45.456;11.064;2023-02-01T06:24:47;101160.40;;;2.90
68745;BMP180;66104;45.456;11.064;2023-02-01T06:27:24;101165.00;;;2.90
68745;BMP180;66104;45.456;11.064;2023-02-01T06:30:00;101147.80;;;2.90
68745;BMP180;66104;45.456;11.064;2023-02-01T06:32:37;101146.60;;;2.80
68745;BMP180;66104;45.456;11.064;2023-02-01T06:35:16;101147.40;;;2.70
68745;BMP180;66104;45.456;11.064;2023-02-01T06:37:53;101146.20;;;2.70
68745;BMP180;66104;45.456;11.064;2023-02-01T06:40:32;101144.00;;;2.70
68745;BMP180;66104;45.456;11.064;2023-02-01T06:43:10;101150.60;;;2.70
68745;BMP180;66104;45.456;11.064;2023-02-01T06:45:46;101154.80;;;2.70
68745;BMP180;66104;45.456;11.064;2023-02-01T06:48:23;101149.80;;;2.70
68745;BMP180;66104;45.456;11.064;2023-02-01T06:50:59;101161.20;;;2.70
68745;BMP180;66104;45.456;11.064;2023-02-01T06:53:37;101165.80;;;2.70
68745;BMP180;66104;45.456;11.064;2023-02-01T06:56:14;101174.40;;;2.70
68745;BMP180;66104;45.456;11.064;2023-02-01T06:58:51;101175.40;;;2.70
68745;BMP180;66104;45.456;11.064;2023-02-01T07:01:28;101165.60;;;2.70
68745;BMP180;66104;45.456;11.064;2023-02-01T07:04:06;101177.60;;;2.70
68745;BMP180;66104;45.456;11.064;2023-02-01T07:06:43;101180.60;;;2.70
68745;BMP180;66104;45.456;11.064;2023-02-01T07:09:20;101185.80;;;2.70
68745;BMP180;66104;45.456;11.064;2023-02-01T07:11:57;101186.00;;;2.60
68745;BMP180;66104;45.456;11.064;2023-02-01T07:14:34;101187.00;;;2.70
68745;BMP180;66104;45.456;11.064;2023-02-01T07:17:11;101193.20;;;2.70
68745;BMP180;66104;45.456;11.064;2023-02-01T07:19:47;101191.20;;;2.74
68745;BMP180;66104;45.456;11.064;2023-02-01T07:22:25;101183.60;;;2.82
68745;BMP180;66104;45.456;11.064;2023-02-01T07:25:02;101186.00;;;2.90
68745;BMP180;66104;45.456;11.064;2023-02-01T07:27:40;101181.00;;;3.00
68745;BMP180;66104;45.456;11.064;2023-02-01T07:30:22;101172.60;;;3.00
68745;BMP180;66104;45.456;11.064;2023-02-01T07:32:58;101183.00;;;3.10
68745;BMP180;66104;45.456;11.064;2023-02-01T07:35:36;101177.60;;;3.20
68745;BMP180;66104;45.456;11.064;2023-02-01T07:38:13;101182.20;;;3.22
68745;BMP180;66104;45.456;11.064;2023-02-01T07:40:50;101165.80;;;3.30
68745;BMP180;66104;45.456;11.064;2023-02-01T07:43:27;101176.80;;;3.30
68745;BMP180;66104;45.456;11.064;2023-02-01T07:46:06;101184.00;;;3.40
68745;BMP180;66104;45.456;11.064;2023-02-01T07:48:43;101187.00;;;3.40
68745;BMP180;66104;45.456;11.064;2023-02-01T07:51:20;101188.00;;;3.50
68745;BMP180;66104;45.456;11.064;2023-02-01T07:53:58;101185.40;;;3.50
68745;BMP180;66104;45.456;11.064;2023-02-01T07:56:34;101184.20;;;3.60
68745;BMP180;66104;45.456;11.064;2023-02-01T07:59:11;101196.80;;;3.64
68745;BMP180;66104;45.456;11.064;2023-02-01T08:01:49;101211.20;;;3.70
68745;BMP180;66104;45.456;11.064;2023-02-01T08:04:26;101213.00;;;3.86
68745;BMP180;66104;45.456;11.064;2023-02-01T08:07:02;101211.20;;;3.96
68745;BMP180;66104;45.456;11.064;2023-02-01T08:09:39;101212.40;;;4.00
68745;BMP180;66104;45.456;11.064;2023-02-01T08:12:16;101218.00;;;4.00
68745;BMP180;66104;45.456;11.064;2023-02-01T08:14:53;101212.20;;;3.90
68745;BMP180;66104;45.456;11.064;2023-02-01T08:17:30;101208.40;;;3.90
68745;BMP180;66104;45.456;11.064;2023-02-01T08:20:12;101216.60;;;3.90
68745;BMP180;66104;45.456;11.064;2023-02-01T08:22:50;101209.40;;;3.90
68745;BMP180;66104;45.456;11.064;2023-02-01T08:25:27;101201.40;;;4.00
68745;BMP180;66104;45.456;11.064;2023-02-01T08:28:04;101195.60;;;4.10
68745;BMP180;66104;45.456;11.064;2023-02-01T08:30:41;101202.00;;;4.20
68745;BMP180;66104;45.456;11.064;2023-02-01T08:33:17;101203.60;;;4.30
68745;BMP180;66104;45.456;11.064;2023-02-01T08:35:53;101200.60;;;4.40
68745;BMP180;66104;45.456;11.064;2023-02-01T08:38:31;101198.20;;;4.50
68745;BMP180;66104;45.456;11.064;2023-02-01T08:41:12;101196.80;;;4.60
68745;BMP180;66104;45.456;11.064;2023-02-01T08:43:49;101200.20;;;4.66
68745;BMP180;66104;45.456;11.064;2023-02-01T08:46:26;101194.20;;;4.70
68745;BMP180;66104;45.456;11.064;2023-02-01T08:49:03;101198.40;;;4.80
68745;BMP180;66104;45.456;11.064;2023-02-01T08:51:40;101193.20;;;4.80
68745;BMP180;66104;45.456;11.064;2023-02-01T08:54:16;101194.00;;;4.90
68745;BMP180;66104;45.456;11.064;2023-02-01T08:56:53;101198.40;;;4.90
68745;BMP180;66104;45.456;11.064;2023-02-01T08:59:31;101192.00;;;4.96
68745;BMP180;66104;45.456;11.064;2023-02-01T09:02:09;101192.40;;;5.08
68745;BMP180;66104;45.456;11.064;2023-02-01T09:04:49;101193.40;;;5.20
68745;BMP180;66104;45.456;11.064;2023-02-01T09:07:26;101195.40;;;5.28
68745;BMP180;66104;45.456;11.064;2023-02-01T09:10:03;101183.80;;;5.40
68745;BMP180;66104;45.456;11.064;2023-02-01T09:12:40;101181.60;;;5.50
68745;BMP180;66104;45.456;11.064;2023-02-01T09:15:17;101181.80;;;5.64
68745;BMP180;66104;45.456;11.064;2023-02-01T09:17:54;101195.60;;;5.78
68745;BMP180;66104;45.456;11.064;2023-02-01T09:20:30;101188.80;;;5.90
68745;BMP180;66104;45.456;11.064;2023-02-01T09:23:08;101182.00;;;5.90
68745;BMP180;66104;45.456;11.064;2023-02-01T09:25:45;101177.20;;;6.00
68745;BMP180;66104;45.456;11.064;2023-02-01T09:28:22;101176.40;;;6.10
68745;BMP180;66104;45.456;11.064;2023-02-01T09:31:01;101177.60;;;6.14
68745;BMP180;66104;45.456;11.064;2023-02-01T09:33:37;101168.20;;;6.20
68745;BMP180;66104;45.456;11.064;2023-02-01T09:36:15;101174.40;;;6.30
68745;BMP180;66104;45.456;11.064;2023-02-01T09:38:53;101179.40;;;6.30
68745;BMP180;66104;45.456;11.064;2023-02-01T09:41:45;101180.60;;;6.34
68745;BMP180;66104;45.456;11.064;2023-02-01T09:44:49;101185.20;;;6.40
68745;BMP180;66104;45.456;11.064;2023-02-01T09:47:28;101185.60;;;6.50
68745;BMP180;66104;45.456;11.064;2023-02-01T09:50:14;101181.00;;;6.56
68745;BMP180;66104;45.456;11.064;2023-02-01T09:53:02;101184.20;;;6.62
68745;BMP180;66104;45.456;11.064;2023-02-01T09:55:45;101182.40;;;6.70
68745;BMP180;66104;45.456;11.064;2023-02-01T09:58:30;101180.00;;;6.80
68745;BMP180;66104;45.456;11.064;2023-02-01T10:01:16;101190.60;;;6.90
68745;BMP180;66104;45.456;11.064;2023-02-01T10:04:06;101190.00;;;7.00
68745;BMP180;66104;45.456;11.064;2023-02-01T10:10:01;101187.80;;;7.12
68745;BMP180;66104;45.456;11.064;2023-02-01T10:13:09;101183.80;;;7.22
68745;BMP180;66104;45.456;11.064;2023-02-01T10:16:03;101181.20;;;7.30
68745;BMP180;66104;45.456;11.064;2023-02-01T10:19:23;101185.80;;;7.40
68745;BMP180;66104;45.456;11.064;2023-02-01T10:22:08;101182.20;;;7.50
68745;BMP180;66104;45.456;11.064;2023-02-01T10:24:51;101181.20;;;7.50
68745;BMP180;66104;45.456;11.064;2023-02-01T10:27:36;101174.00;;;7.50
68745;BMP180;66104;45.456;11.064;2023-02-01T10:30:24;101167.00;;;7.60
68745;BMP180;66104;45.456;11.064;2023-02-01T10:33:22;101158.40;;;7.70
68745;BMP180;66104;45.456;11.064;2023-02-01T10:36:05;101157.40;;;7.80
68745;BMP180;66104;45.456;11.064;2023-02-01T10:38:48;101154.00;;;7.94
68745;BMP180;66104;45.456;11.064;2023-02-01T10:41:29;101161.40;;;8.06
68745;BMP180;66104;45.456;11.064;2023-02-01T10:44:16;101166.40;;;8.16
68745;BMP180;66104;45.456;11.064;2023-02-01T10:46:53;101163.80;;;8.20
68745;BMP180;66104;45.456;11.064;2023-02-01T10:49:37;101156.40;;;8.30
68745;BMP180;66104;45.456;11.064;2023-02-01T10:52:19;101159.00;;;8.40
68745;BMP180;66104;45.456;11.064;2023-02-01T10:54:58;101150.00;;;8.42
68745;BMP180;66104;45.456;11.064;2023-02-01T10:58:02;101149.40;;;8.50
68745;BMP180;66104;45.456;11.064;2023-02-01T11:00:56;101149.00;;;8.60
68745;BMP180;66104;45.456;11.064;2023-02-01T11:03:40;101161.20;;;8.70
68745;BMP180;66104;45.456;11.064;2023-02-01T11:06:32;101158.00;;;8.80
68745;BMP180;66104;45.456;11.064;2023-02-01T11:09:21;101145.80;;;8.88
68745;BMP180;66104;45.456;11.064;2023-02-01T11:12:01;101150.60;;;8.90
68745;BMP180;66104;45.456;11.064;2023-02-01T11:14:42;101149.60;;;9.00
68745;BMP180;66104;45.456;11.064;2023-02-01T11:17:38;101146.20;;;9.00
68745;BMP180;66104;45.456;11.064;2023-02-01T11:20:33;101145.80;;;9.10
68745;BMP180;66104;45.456;11.064;2023-02-01T11:23:19;101154.60;;;9.20
68745;BMP180;66104;45.456;11.064;2023-02-01T11:26:02;101151.00;;;9.22
68745;BMP180;66104;45.456;11.064;2023-02-01T11:28:53;101142.20;;;9.30
68745;BMP180;66104;45.456;11.064;2023-02-01T11:31:32;101131.80;;;9.40
68745;BMP180;66104;45.456;11.064;2023-02-01T11:34:17;101132.20;;;9.44
68745;BMP180;66104;45.456;11.064;2023-02-01T11:36:58;101136.00;;;9.50
68745;BMP180;66104;45.456;11.064;2023-02-01T11:39:36;101136.80;;;9.58
68745;BMP180;66104;45.456;11.064;2023-02-01T11:42:18;101137.40;;;9.60
68745;BMP180;66104;45.456;11.064;2023-02-01T11:45:18;101132.40;;;9.70
68745;BMP180;66104;45.456;11.064;2023-02-01T11:47:58;101129.20;;;9.70
68745;BMP180;66104;45.456;11.064;2023-02-01T11:50:46;101123.60;;;9.80
68745;BMP180;66104;45.456;11.064;2023-02-01T11:53:40;101117.40;;;9.80
68745;BMP180;66104;45.456;11.064;2023-02-01T11:56:28;101111.40;;;9.82
68745;BMP180;66104;45.456;11.064;2023-02-01T11:59:31;101118.00;;;9.90
68745;BMP180;66104;45.456;11.064;2023-02-01T12:05:50;101097.20;;;9.90
68745;BMP180;66104;45.456;11.064;2023-02-01T12:11:51;101087.60;;;10.00
68745;BMP180;66104;45.456;11.064;2023-02-01T12:14:51;101080.80;;;10.00
68745;BMP180;66104;45.456;11.064;2023-02-01T12:21:23;101071.40;;;10.10
68745;BMP180;66104;45.456;11.064;2023-02-01T12:33:31;101059.80;;;10.20
68745;BMP180;66104;45.456;11.064;2023-02-01T12:36:22;101058.40;;;10.20
68745;BMP180;66104;45.456;11.064;2023-02-01T12:39:12;101052.20;;;10.30
68745;BMP180;66104;45.456;11.064;2023-02-01T12:42:01;101042.40;;;10.30
68745;BMP180;66104;45.456;11.064;2023-02-01T12:44:54;101036.80;;;10.30
68745;BMP180;66104;45.456;11.064;2023-02-01T12:47:38;101045.00;;;10.40
68745;BMP180;66104;45.456;11.064;2023-02-01T12:50:25;101048.40;;;10.40
68745;BMP180;66104;45.456;11.064;2023-02-01T12:53:17;101040.80;;;10.50
68745;BMP180;66104;45.456;11.064;2023-02-01T12:56:01;101043.80;;;10.50
68745;BMP180;66104;45.456;11.064;2023-02-01T12:58:48;101051.80;;;10.60
68745;BMP180;66104;45.456;11.064;2023-02-01T13:01:34;101043.40;;;10.60
68745;BMP180;66104;45.456;11.064;2023-02-01T13:04:20;101029.00;;;10.60
68745;BMP180;66104;45.456;11.064;2023-02-01T13:07:09;101014.80;;;10.56
68745;BMP180;66104;45.456;11.064;2023-02-01T13:09:55;101018.40;;;10.58
68745;BMP180;66104;45.456;11.064;2023-02-01T13:12:40;101018.40;;;10.60
68745;BMP180;66104;45.456;11.064;2023-02-01T13:15:27;101013.80;;;10.66
68745;BMP180;66104;45.456;11.064;2023-02-01T13:18:06;101001.80;;;10.70
68745;BMP180;66104;45.456;11.064;2023-02-01T13:20:54;100990.20;;;10.70
68745;BMP180;66104;45.456;11.064;2023-02-01T13:23:37;100986.00;;;10.70
68745;BMP180;66104;45.456;11.064;2023-02-01T13:26:16;100983.60;;;10.70
68745;BMP180;66104;45.456;11.064;2023-02-01T13:28:56;100980.80;;;10.70
68745;BMP180;66104;45.456;11.064;2023-02-01T13:32:19;100984.20;;;10.70
68745;BMP180;66104;45.456;11.064;2023-02-01T13:35:52;100992.60;;;10.80
68745;BMP180;66104;45.456;11.064;2023-02-01T13:39:01;100982.60;;;10.80
68745;BMP180;66104;45.456;11.064;2023-02-01T13:41:53;100976.40;;;10.80
68745;BMP180;66104;45.456;11.064;2023-02-01T13:44:37;100981.00;;;10.86
68745;BMP180;66104;45.456;11.064;2023-02-01T13:47:24;100982.60;;;10.80
68745;BMP180;66104;45.456;11.064;2023-02-01T13:50:21;100975.40;;;10.80
68745;BMP180;66104;45.456;11.064;2023-02-01T13:53:02;100972.20;;;10.82
68745;BMP180;66104;45.456;11.064;2023-02-01T13:55:43;100971.60;;;10.90
68745;BMP180;66104;45.456;11.064;2023-02-01T13:58:28;100971.60;;;10.90
68745;BMP180;66104;45.456;11.064;2023-02-01T14:01:35;100965.00;;;10.84
68745;BMP180;66104;45.456;11.064;2023-02-01T14:04:50;100959.20;;;10.84
68745;BMP180;66104;45.456;11.064;2023-02-01T14:07:28;100955.00;;;10.90
68745;BMP180;66104;45.456;11.064;2023-02-01T14:10:51;100959.00;;;10.86
68745;BMP180;66104;45.456;11.064;2023-02-01T14:13:32;100959.60;;;10.80
68745;BMP180;66104;45.456;11.064;2023-02-01T14:16:22;100954.80;;;10.80
68745;BMP180;66104;45.456;11.064;2023-02-01T14:19:18;100950.20;;;10.80
68745;BMP180;66104;45.456;11.064;2023-02-01T14:21:57;100956.60;;;10.80
68745;BMP180;66104;45.456;11.064;2023-02-01T14:24:38;100954.60;;;10.80
68745;BMP180;66104;45.456;11.064;2023-02-01T14:27:41;100950.80;;;10.80
68745;BMP180;66104;45.456;11.064;2023-02-01T14:30:21;100949.80;;;10.80
68745;BMP180;66104;45.456;11.064;2023-02-01T14:32:59;100942.00;;;10.80
68745;BMP180;66104;45.456;11.064;2023-02-01T14:36:12;100936.00;;;10.80
68745;BMP180;66104;45.456;11.064;2023-02-01T14:38:55;100933.00;;;10.80
68745;BMP180;66104;45.456;11.064;2023-02-01T14:44:40;100943.40;;;10.80
68745;BMP180;66104;45.456;11.064;2023-02-01T14:47:36;100943.80;;;10.80
68745;BMP180;66104;45.456;11.064;2023-02-01T14:50:37;100943.80;;;10.80
68745;BMP180;66104;45.456;11.064;2023-02-01T14:53:33;100948.60;;;10.80
68745;BMP180;66104;45.456;11.064;2023-02-01T14:56:16;100950.00;;;10.80
68745;BMP180;66104;45.456;11.064;2023-02-01T14:59:08;100949.80;;;10.80
68745;BMP180;66104;45.456;11.064;2023-02-01T15:01:56;100957.60;;;10.80
68745;BMP180;66104;45.456;11.064;2023-02-01T15:04:42;100957.40;;;10.80
68745;BMP180;66104;45.456;11.064;2023-02-01T15:07:19;100947.20;;;10.80
68745;BMP180;66104;45.456;11.064;2023-02-01T15:10:00;100945.20;;;10.80
68745;BMP180;66104;45.456;11.064;2023-02-01T15:12:45;100940.60;;;10.70
68745;BMP180;66104;45.456;11.064;2023-02-01T15:15:24;100939.00;;;10.70
68745;BMP180;66104;45.456;11.064;2023-02-01T15:18:01;100932.20;;;10.70
68745;BMP180;66104;45.456;11.064;2023-02-01T15:20:38;100943.40;;;10.70
68745;BMP180;66104;45.456;11.064;2023-02-01T15:23:37;100936.20;;;10.70
68745;BMP180;66104;45.456;11.064;2023-02-01T15:26:26;100936.00;;;10.60
68745;BMP180;66104;45.456;11.064;2023-02-01T15:29:03;100931.80;;;10.60
68745;BMP180;66104;45.456;11.064;2023-02-01T15:31:42;100928.40;;;10.60
68745;BMP180;66104;45.456;11.064;2023-02-01T15:34:21;100925.80;;;10.60
68745;BMP180;66104;45.456;11.064;2023-02-01T15:37:11;100915.60;;;10.50
68745;BMP180;66104;45.456;11.064;2023-02-01T15:40:21;100918.80;;;10.50
68745;BMP180;66104;45.456;11.064;2023-02-01T15:43:00;100922.40;;;10.50
68745;BMP180;66104;45.456;11.064;2023-02-01T15:45:37;100921.20;;;10.40
68745;BMP180;66104;45.456;11.064;2023-02-01T15:48:34;100923.60;;;10.40
68745;BMP180;66104;45.456;11.064;2023-02-01T15:51:29;100921.60;;;10.34
68745;BMP180;66104;45.456;11.064;2023-02-01T15:54:16;100918.20;;;10.30